createdAt,value
2023-03-08T00:00:25.330Z,12.97
2023-03-08T00:02:53.943Z,12.50
2023-03-08T00:05:20.730Z,12.40
2023-03-08T00:07:47.525Z,13.13
2023-03-08T00:10:14.575Z,13.47
2023-03-08T00:12:41.331Z,16.03
2023-03-08T00:15:08.713Z,13.13
2023-03-08T00:17:39.236Z,14.00
2023-03-08T00:20:08.106Z,12.43
2023-03-08T00:22:39.007Z,11.87
2023-03-08T00:25:06.377Z,14.07
2023-03-08T00:27:33.326Z,13.77
2023-03-08T00:30:00.031Z,17.37
2023-03-08T00:32:27.768Z,14.90
2023-03-08T00:34:54.643Z,15.43
2023-03-08T00:37:21.792Z,17.23
2023-03-08T00:39:52.759Z,13.87
2023-03-08T00:42:21.852Z,14.10
2023-03-08T00:44:49.205Z,14.30
2023-03-08T00:47:16.785Z,12.23
2023-03-08T00:49:44.304Z,14.93
2023-03-08T00:52:14.364Z,15.27
2023-03-08T00:54:41.255Z,16.90
2023-03-08T00:57:08.046Z,18.80
2023-03-08T00:59:34.776Z,15.63
2023-03-08T01:02:01.658Z,18.03
2023-03-08T01:04:28.523Z,16.73
2023-03-08T01:06:58.302Z,16.30
2023-03-08T01:09:25.055Z,17.97
2023-03-08T01:11:51.847Z,17.13
2023-03-08T01:14:18.690Z,19.37
2023-03-08T01:16:45.534Z,18.07
2023-03-08T01:19:12.455Z,21.30
2023-03-08T01:21:39.433Z,21.00
2023-03-08T01:24:06.462Z,21.43
2023-03-08T01:26:33.764Z,26.87
2023-03-08T01:29:02.659Z,22.83
2023-03-08T01:31:30.531Z,26.83
2023-03-08T01:33:58.646Z,25.83
2023-03-08T01:36:27.901Z,25.20
2023-03-08T01:38:55.010Z,31.57
2023-03-08T01:41:25.035Z,25.27
2023-03-08T01:43:52.232Z,27.83
2023-03-08T01:46:35.940Z,28.10
2023-03-08T01:49:17.393Z,22.70
2023-03-08T01:51:49.854Z,32.03
2023-03-08T01:54:24.645Z,33.80
2023-03-08T01:56:54.879Z,28.70
2023-03-08T01:59:23.508Z,33.93
2023-03-08T02:01:50.491Z,36.47
2023-03-08T02:04:17.336Z,41.83
2023-03-08T02:06:44.878Z,38.37
2023-03-08T02:09:13.446Z,38.33
2023-03-08T02:11:42.137Z,44.57
2023-03-08T02:14:08.955Z,47.70
2023-03-08T02:16:35.690Z,51.07
2023-03-08T02:19:06.062Z,58.17
2023-03-08T02:21:33.200Z,53.83
2023-03-08T02:24:07.227Z,65.07
2023-03-08T02:26:36.951Z,68.53
2023-03-08T02:29:03.845Z,69.20
2023-03-08T02:31:30.806Z,67.30
2023-03-08T02:33:57.505Z,72.60
2023-03-08T02:36:24.291Z,64.50
2023-03-08T02:38:51.115Z,81.23
2023-03-08T02:41:17.909Z,74.50
2023-03-08T02:43:44.724Z,88.80
2023-03-08T02:46:13.472Z,96.60
2023-03-08T02:48:40.216Z,84.27
2023-03-08T02:51:07.085Z,99.57
2023-03-08T02:53:33.869Z,96.77
2023-03-08T02:56:00.618Z,85.33
2023-03-08T02:58:27.284Z,97.97
2023-03-08T03:00:53.988Z,84.03
2023-03-08T03:03:20.718Z,82.97
2023-03-08T03:05:47.477Z,84.20
2023-03-08T03:08:14.237Z,87.77
2023-03-08T03:10:41.818Z,110.47
2023-03-08T03:13:10.825Z,82.10
2023-03-08T03:15:39.407Z,82.50
2023-03-08T03:18:06.263Z,89.83
2023-03-08T03:20:33.891Z,88.57
2023-03-08T03:23:00.903Z,99.90
2023-03-08T03:25:27.705Z,132.73
2023-03-08T03:27:55.475Z,109.73
2023-03-08T03:30:22.878Z,129.50
2023-03-08T03:32:49.721Z,139.43
2023-03-08T03:35:16.506Z,171.77
2023-03-08T03:37:43.373Z,211.30
2023-03-08T03:40:11.924Z,227.07
2023-03-08T03:42:40.130Z,204.70
2023-03-08T03:45:07.453Z,205.17
2023-03-08T03:47:34.275Z,193.43
2023-03-08T03:50:03.407Z,183.73
2023-03-08T03:52:30.229Z,191.80
2023-03-08T03:54:56.933Z,165.93
2023-03-08T03:57:23.784Z,169.50
2023-03-08T03:59:50.634Z,164.30
2023-03-08T04:02:17.366Z,211.13
2023-03-08T04:04:44.100Z,168.03
2023-03-08T04:07:13.111Z,144.60
2023-03-08T04:09:39.858Z,209.43
2023-03-08T04:12:09.699Z,201.93
2023-03-08T04:14:36.579Z,213.13
2023-03-08T04:17:03.548Z,198.27
2023-03-08T04:19:30.389Z,202.97
2023-03-08T04:21:57.127Z,192.20
2023-03-08T04:24:24.272Z,190.33
2023-03-08T04:26:50.970Z,158.17
2023-03-08T04:29:17.751Z,204.33
2023-03-08T04:31:44.639Z,160.80
2023-03-08T04:34:16.877Z,143.53
2023-03-08T04:36:43.925Z,122.87
2023-03-08T04:39:10.672Z,144.77
2023-03-08T04:41:37.390Z,136.97
2023-03-08T04:44:04.158Z,140.47
2023-03-08T04:46:30.976Z,109.87
2023-03-08T04:48:57.846Z,114.07
2023-03-08T04:51:26.074Z,126.83
2023-03-08T04:53:53.155Z,108.50
2023-03-08T04:56:20.433Z,124.13
2023-03-08T04:58:47.647Z,150.10
2023-03-08T05:01:26.503Z,115.93
2023-03-08T05:03:54.389Z,119.00
2023-03-08T05:06:23.402Z,86.60
2023-03-08T05:08:50.407Z,108.10
2023-03-08T05:11:20.730Z,105.97
2023-03-08T05:13:47.884Z,93.87
2023-03-08T05:16:16.930Z,86.80
2023-03-08T05:18:43.929Z,84.80
2023-03-08T05:21:13.926Z,81.33
2023-03-08T05:23:41.609Z,107.30
2023-03-08T05:26:13.668Z,85.57
2023-03-08T05:28:41.967Z,106.27
2023-03-08T05:31:20.085Z,114.77
2023-03-08T05:33:53.850Z,103.27
2023-03-08T05:36:21.105Z,88.90
2023-03-08T05:38:48.218Z,106.63
2023-03-08T05:41:16.563Z,82.90
2023-03-08T05:43:43.515Z,82.17
2023-03-08T05:46:19.099Z,83.17
2023-03-08T05:48:46.095Z,68.63
2023-03-08T05:51:16.063Z,71.77
2023-03-08T05:53:43.713Z,77.90
2023-03-08T05:56:13.643Z,65.47
2023-03-08T05:58:43.165Z,67.93
2023-03-08T06:01:25.197Z,65.43
2023-03-08T06:03:53.892Z,63.47
2023-03-08T06:06:21.648Z,65.93
2023-03-08T06:08:49.159Z,62.33
2023-03-08T06:11:16.655Z,57.80
2023-03-08T06:13:43.509Z,60.83
2023-03-08T06:16:11.636Z,70.90
2023-03-08T06:18:40.011Z,62.37
2023-03-08T06:21:10.284Z,59.20
2023-03-08T06:23:37.369Z,54.73
2023-03-08T06:26:05.783Z,49.73
2023-03-08T06:28:32.556Z,57.83
2023-03-08T06:30:59.743Z,50.40
2023-03-08T06:33:31.433Z,53.63
2023-03-08T06:36:07.685Z,49.37
2023-03-08T06:38:36.590Z,47.10
2023-03-08T06:41:07.163Z,45.83
2023-03-08T06:43:34.542Z,49.77
2023-03-08T06:46:08.237Z,45.07
2023-03-08T06:48:36.330Z,43.63
2023-03-08T06:51:04.179Z,42.77
2023-03-08T06:53:31.444Z,46.60
2023-03-08T06:55:58.564Z,44.93
2023-03-08T06:58:28.345Z,45.43
2023-03-08T07:00:55.588Z,43.70
2023-03-08T07:03:23.221Z,38.57
2023-03-08T07:05:50.053Z,38.73
2023-03-08T07:08:16.745Z,35.17
2023-03-08T07:10:43.541Z,37.60
2023-03-08T07:13:10.474Z,37.23
2023-03-08T07:15:40.474Z,35.40
2023-03-08T07:18:07.318Z,36.73
2023-03-08T07:20:36.931Z,31.57
2023-03-08T07:23:03.826Z,31.80
2023-03-08T07:25:30.693Z,27.27
2023-03-08T07:28:00.049Z,28.70
2023-03-08T07:30:27.701Z,31.90
2023-03-08T07:32:55.555Z,30.13
2023-03-08T07:35:22.254Z,30.00
2023-03-08T07:37:49.067Z,27.33
2023-03-08T07:40:17.693Z,24.80
2023-03-08T07:42:45.053Z,30.23
2023-03-08T07:45:13.149Z,28.33
2023-03-08T07:47:40.791Z,29.77
2023-03-08T07:50:08.781Z,29.40
2023-03-08T07:52:35.594Z,27.40
2023-03-08T07:55:02.933Z,25.10
2023-03-08T07:57:29.955Z,25.17
2023-03-08T07:59:56.793Z,26.67
2023-03-08T08:02:23.664Z,23.97
2023-03-08T08:04:53.438Z,25.47
2023-03-08T08:07:20.152Z,22.63
2023-03-08T08:09:46.942Z,22.97
2023-03-08T08:12:14.103Z,20.63
2023-03-08T08:14:43.554Z,25.50
2023-03-08T08:17:10.650Z,22.27
2023-03-08T08:19:38.395Z,22.60
2023-03-08T08:22:11.300Z,19.40
2023-03-08T08:24:38.114Z,20.40
2023-03-08T08:27:06.165Z,20.53
2023-03-08T08:29:32.971Z,22.00
2023-03-08T08:31:59.836Z,18.40
2023-03-08T08:34:29.397Z,20.53
2023-03-08T08:36:56.677Z,22.70
2023-03-08T08:39:23.487Z,20.67
2023-03-08T08:41:50.580Z,20.13
2023-03-08T08:44:19.659Z,17.90
2023-03-08T08:46:46.532Z,20.33
2023-03-08T08:49:13.393Z,20.77
2023-03-08T08:51:40.358Z,19.90
2023-03-08T08:54:07.188Z,19.40
2023-03-08T08:56:34.624Z,16.37
2023-03-08T08:59:02.829Z,20.07
2023-03-08T09:01:35.065Z,18.97
2023-03-08T09:04:01.955Z,17.13
2023-03-08T09:06:29.781Z,19.93
2023-03-08T09:09:00.420Z,17.80
2023-03-08T09:11:27.867Z,17.47
2023-03-08T09:13:54.919Z,15.93
2023-03-08T09:16:23.331Z,16.40
2023-03-08T09:18:50.412Z,14.33
2023-03-08T09:21:18.064Z,15.73
2023-03-08T09:23:44.918Z,16.00
2023-03-08T09:26:12.204Z,15.50
2023-03-08T09:28:39.145Z,18.67
2023-03-08T09:31:12.007Z,18.87
2023-03-08T09:33:51.910Z,15.17
2023-03-08T09:36:19.245Z,17.07
2023-03-08T09:38:48.813Z,17.87
2023-03-08T09:41:27.974Z,16.80
2023-03-08T09:44:04.245Z,16.80
2023-03-08T09:46:36.409Z,18.90
2023-03-08T09:49:05.168Z,18.20
2023-03-08T09:51:38.667Z,18.00
2023-03-08T09:54:17.553Z,20.47
2023-03-08T09:56:50.098Z,20.83
2023-03-08T09:59:27.428Z,19.60
2023-03-08T10:02:02.373Z,23.93
2023-03-08T10:05:13.225Z,21.80
2023-03-08T10:07:43.603Z,19.60
2023-03-08T10:10:30.600Z,22.40
2023-03-08T10:13:15.602Z,24.50
2023-03-08T10:15:47.350Z,26.90
2023-03-08T10:18:40.568Z,25.70
2023-03-08T10:21:11.748Z,27.13
2023-03-08T10:23:41.378Z,23.60
2023-03-08T10:26:14.847Z,22.77
2023-03-08T10:28:42.067Z,21.40
2023-03-08T10:31:24.150Z,21.20
2023-03-08T10:34:13.880Z,16.90
2023-03-08T10:37:00.385Z,15.47
2023-03-08T10:39:27.473Z,13.33
2023-03-08T10:41:57.976Z,14.37
2023-03-08T10:44:41.284Z,11.17
2023-03-08T10:47:26.426Z,8.53
2023-03-08T10:50:28.059Z,11.97
2023-03-08T10:52:54.985Z,10.73
2023-03-08T10:55:29.603Z,10.37
2023-03-08T10:58:01.781Z,11.10
2023-03-08T11:00:37.916Z,10.37
2023-03-08T11:03:16.086Z,10.77
2023-03-08T11:05:59.449Z,10.73
2023-03-08T11:08:39.977Z,8.90
2023-03-08T11:11:11.107Z,8.40
2023-03-08T11:13:39.422Z,10.27
2023-03-08T11:16:06.479Z,8.77
2023-03-08T11:18:52.368Z,9.40
2023-03-08T11:21:53.359Z,8.23
2023-03-08T11:24:57.448Z,8.87
2023-03-08T11:27:44.452Z,10.10
2023-03-08T11:30:23.478Z,11.83
2023-03-08T11:33:02.796Z,9.53
2023-03-08T11:35:48.483Z,10.63
2023-03-08T11:38:20.073Z,10.47
2023-03-08T11:41:25.731Z,11.73
2023-03-08T11:44:17.052Z,12.53
2023-03-08T11:46:51.206Z,11.17
2023-03-08T11:49:23.747Z,11.07
2023-03-08T11:52:14.003Z,11.50
2023-03-08T11:54:51.618Z,12.17
2023-03-08T11:57:18.849Z,11.90
2023-03-08T11:59:56.959Z,13.03
2023-03-08T12:02:29.766Z,12.20
2023-03-08T12:05:08.727Z,12.87
2023-03-08T12:08:02.084Z,13.53
2023-03-08T12:10:59.088Z,13.77
2023-03-08T12:13:40.029Z,13.53
2023-03-08T12:16:18.475Z,12.23
2023-03-08T12:19:33.015Z,13.73
2023-03-08T12:22:27.078Z,15.27
2023-03-08T12:25:05.392Z,10.93
2023-03-08T12:27:34.892Z,13.60
2023-03-08T12:30:13.006Z,13.53
2023-03-08T12:32:42.082Z,12.70
2023-03-08T12:35:28.449Z,12.43
2023-03-08T12:38:01.738Z,12.13
2023-03-08T12:40:42.325Z,12.43
2023-03-08T12:43:27.691Z,10.70
2023-03-08T12:46:00.416Z,10.80
2023-03-08T12:48:39.674Z,10.50
2023-03-08T12:51:12.618Z,11.37
2023-03-08T12:53:44.581Z,12.40
2023-03-08T12:56:11.337Z,12.40
2023-03-08T12:58:56.075Z,11.50
2023-03-08T13:01:43.147Z,9.93
2023-03-08T13:04:45.450Z,10.13
2023-03-08T13:07:40.166Z,9.40
2023-03-08T13:10:25.983Z,10.47
2023-03-08T13:13:18.490Z,9.37
2023-03-08T13:16:14.665Z,10.40
2023-03-08T13:18:45.729Z,7.13
2023-03-08T13:21:18.701Z,6.93
2023-03-08T13:24:05.879Z,9.00
2023-03-08T13:26:57.065Z,6.77
2023-03-08T13:29:30.838Z,6.90
2023-03-08T13:31:58.200Z,6.67
2023-03-08T13:34:29.447Z,6.87
2023-03-08T13:36:56.466Z,8.23
2023-03-08T13:39:28.047Z,7.40
2023-03-08T13:42:07.682Z,6.50
2023-03-08T13:44:34.440Z,8.17
2023-03-08T13:47:05.034Z,6.87
2023-03-08T13:49:34.865Z,6.57
2023-03-08T13:52:11.264Z,8.10
2023-03-08T13:54:47.265Z,7.07
2023-03-08T13:57:23.659Z,8.10
2023-03-08T13:59:56.215Z,8.93
2023-03-08T14:02:25.846Z,7.40
2023-03-08T14:04:53.403Z,8.47
2023-03-08T14:07:32.137Z,7.47
2023-03-08T14:09:59.097Z,8.53
2023-03-08T14:12:32.955Z,8.13
2023-03-08T14:15:02.988Z,7.43
2023-03-08T14:17:32.618Z,8.10
2023-03-08T14:20:02.751Z,8.07
2023-03-08T14:22:39.657Z,8.27
2023-03-08T14:25:20.657Z,7.37
2023-03-08T14:27:47.490Z,7.50
2023-03-08T14:30:29.503Z,9.40
2023-03-08T14:33:14.701Z,7.73
2023-03-08T14:36:00.134Z,10.97
2023-03-08T14:38:31.350Z,7.40
2023-03-08T14:41:03.794Z,7.80
2023-03-08T14:43:30.574Z,9.17
2023-03-08T14:46:03.980Z,8.27
2023-03-08T14:48:38.567Z,9.07
2023-03-08T14:51:07.619Z,7.80
2023-03-08T14:53:39.975Z,7.93
2023-03-08T14:56:17.039Z,8.53
2023-03-08T14:58:49.013Z,8.53
2023-03-08T15:01:27.378Z,9.60
2023-03-08T15:03:54.361Z,8.60
2023-03-08T15:06:27.343Z,9.17
2023-03-08T15:08:54.800Z,8.73
2023-03-08T15:11:22.358Z,9.60
2023-03-08T15:13:49.598Z,8.20
2023-03-08T15:16:16.506Z,7.90
2023-03-08T15:18:43.442Z,8.03
2023-03-08T15:21:14.978Z,9.90
2023-03-08T15:23:43.022Z,9.50
2023-03-08T15:26:15.853Z,7.23
2023-03-08T15:28:42.724Z,7.50
2023-03-08T15:31:09.702Z,8.23
2023-03-08T15:33:36.501Z,8.87
2023-03-08T15:36:03.563Z,8.90
2023-03-08T15:38:30.300Z,8.53
2023-03-08T15:40:57.108Z,8.37
2023-03-08T15:43:23.891Z,8.70
2023-03-08T15:45:50.710Z,8.40
2023-03-08T15:48:18.949Z,8.73
2023-03-08T15:50:46.109Z,7.97
2023-03-08T15:53:18.541Z,7.33
2023-03-08T15:55:50.060Z,9.43
2023-03-08T15:58:16.853Z,7.53
2023-03-08T16:00:43.721Z,8.67
2023-03-08T16:03:14.142Z,7.20
2023-03-08T16:05:40.924Z,8.10
2023-03-08T16:08:07.786Z,9.00
2023-03-08T16:10:40.661Z,9.27
2023-03-08T16:13:08.053Z,8.33
2023-03-08T16:15:35.043Z,8.47
2023-03-08T16:18:01.937Z,8.53
2023-03-08T16:20:28.831Z,9.27
2023-03-08T16:22:55.704Z,8.53
2023-03-08T16:25:24.639Z,8.83
2023-03-08T16:27:52.619Z,10.27
2023-03-08T16:30:19.740Z,9.10
2023-03-08T16:32:46.587Z,11.33
2023-03-08T16:35:13.423Z,9.73
2023-03-08T16:37:40.234Z,12.30
2023-03-08T16:40:08.102Z,10.87
2023-03-08T16:42:35.358Z,9.43
2023-03-08T16:45:02.230Z,11.00
2023-03-08T16:47:32.286Z,10.70
2023-03-08T16:50:00.956Z,10.20
2023-03-08T16:52:28.215Z,11.17
2023-03-08T16:54:56.002Z,9.83
2023-03-08T16:57:23.017Z,10.13
2023-03-08T16:59:49.876Z,10.07
2023-03-08T17:02:19.685Z,9.40
2023-03-08T17:04:47.783Z,9.77
2023-03-08T17:07:15.086Z,13.47
2023-03-08T17:09:42.032Z,11.00
2023-03-08T17:12:09.550Z,10.63
2023-03-08T17:14:37.415Z,12.20
2023-03-08T17:17:05.149Z,12.70
2023-03-08T17:19:32.617Z,12.43
2023-03-08T17:22:01.973Z,12.87
2023-03-08T17:24:30.636Z,13.47
2023-03-08T17:26:57.462Z,13.20
2023-03-08T17:29:24.594Z,10.73
2023-03-08T17:31:51.584Z,11.90
2023-03-08T17:34:21.732Z,11.53
2023-03-08T17:36:48.895Z,12.33
2023-03-08T17:39:16.763Z,13.27
2023-03-08T17:41:44.803Z,14.27
2023-03-08T17:44:12.396Z,14.13
2023-03-08T17:46:42.679Z,14.77
2023-03-08T17:49:11.989Z,12.90
2023-03-08T17:51:38.767Z,16.23
2023-03-08T17:54:07.113Z,16.93
2023-03-08T17:56:36.480Z,14.60
2023-03-08T17:59:03.466Z,14.20
2023-03-08T18:01:31.816Z,13.97
2023-03-08T18:03:58.789Z,15.37
2023-03-08T18:06:38.257Z,14.30
2023-03-08T18:09:13.967Z,13.83
2023-03-08T18:11:41.509Z,14.90
2023-03-08T18:14:13.761Z,14.60
2023-03-08T18:16:42.465Z,16.23
2023-03-08T18:19:10.330Z,14.83
2023-03-08T18:21:38.852Z,14.93
2023-03-08T18:24:07.818Z,15.10
2023-03-08T18:26:34.602Z,13.70
2023-03-08T18:29:05.821Z,15.17
2023-03-08T18:31:35.026Z,13.80
2023-03-08T18:34:02.892Z,16.70
2023-03-08T18:36:29.827Z,17.17
2023-03-08T18:38:56.672Z,17.77
2023-03-08T18:41:33.743Z,14.50
2023-03-08T18:44:01.232Z,15.17
2023-03-08T18:46:30.209Z,16.73
2023-03-08T18:49:06.003Z,15.57
2023-03-08T18:51:34.754Z,16.13
2023-03-08T18:54:02.036Z,17.90
2023-03-08T18:56:29.903Z,20.27
2023-03-08T18:59:04.090Z,18.10
2023-03-08T19:01:31.733Z,18.67
2023-03-08T19:04:00.393Z,18.23
2023-03-08T19:06:27.778Z,18.63
2023-03-08T19:08:54.599Z,18.57
2023-03-08T19:11:23.703Z,18.57
2023-03-08T19:13:55.615Z,18.23
2023-03-08T19:16:31.777Z,17.43
2023-03-08T19:19:01.567Z,15.70
2023-03-08T19:21:30.539Z,18.20
2023-03-08T19:23:58.147Z,19.67
2023-03-08T19:26:37.006Z,18.50
2023-03-08T19:29:25.313Z,15.50
2023-03-08T19:31:58.138Z,17.67
2023-03-08T19:34:28.021Z,16.60
2023-03-08T19:36:55.953Z,15.93
2023-03-08T19:39:47.225Z,17.03
2023-03-08T19:42:16.796Z,15.27
2023-03-08T19:44:48.530Z,15.57
2023-03-08T19:47:16.549Z,15.20
2023-03-08T19:49:45.608Z,16.27
2023-03-08T19:52:14.050Z,14.70
2023-03-08T19:54:45.469Z,17.33
2023-03-08T19:57:12.495Z,17.33
2023-03-08T19:59:39.265Z,17.60
2023-03-08T20:02:08.705Z,15.17
2023-03-08T20:04:36.547Z,15.77
2023-03-08T20:07:06.451Z,16.73
2023-03-08T20:09:33.192Z,13.90
2023-03-08T20:12:00.003Z,17.47
2023-03-08T20:14:27.547Z,16.50
2023-03-08T20:16:59.094Z,17.00
2023-03-08T20:19:28.542Z,16.40
2023-03-08T20:21:55.314Z,18.80
2023-03-08T20:24:26.654Z,18.87
2023-03-08T20:26:53.410Z,19.37
2023-03-08T20:29:20.777Z,19.07
2023-03-08T20:31:48.347Z,18.03
2023-03-08T20:34:16.251Z,18.70
2023-03-08T20:36:43.956Z,18.13
2023-03-08T20:39:10.974Z,16.80
2023-03-08T20:41:37.757Z,20.03
2023-03-08T20:44:04.605Z,18.30
2023-03-08T20:46:33.471Z,20.63
2023-03-08T20:49:02.980Z,20.97
2023-03-08T20:51:29.785Z,18.17
2023-03-08T20:53:57.331Z,18.57
2023-03-08T20:56:25.350Z,20.90
2023-03-08T20:58:54.732Z,21.40
2023-03-08T21:01:27.923Z,20.27
2023-03-08T21:03:58.093Z,19.80
2023-03-08T21:06:30.633Z,21.67
2023-03-08T21:09:02.843Z,20.07
2023-03-08T21:11:29.840Z,19.30
2023-03-08T21:13:56.703Z,19.13
2023-03-08T21:16:25.175Z,22.03
2023-03-08T21:18:54.885Z,19.97
2023-03-08T21:21:27.178Z,22.23
2023-03-08T21:23:58.861Z,20.07
2023-03-08T21:26:27.188Z,21.33
2023-03-08T21:28:56.952Z,21.27
2023-03-08T21:31:24.552Z,20.20
2023-03-08T21:33:51.449Z,20.47
2023-03-08T21:36:18.408Z,22.40
2023-03-08T21:38:45.724Z,22.50
2023-03-08T21:41:20.403Z,23.33
2023-03-08T21:43:47.415Z,20.27
2023-03-08T21:46:14.914Z,21.93
2023-03-08T21:48:41.942Z,22.50
2023-03-08T21:51:09.356Z,21.87
2023-03-08T21:53:36.470Z,21.47
2023-03-08T21:56:07.551Z,22.00
2023-03-08T21:58:34.716Z,20.37
2023-03-08T22:01:01.717Z,20.50
2023-03-08T22:03:30.802Z,23.80
2023-03-08T22:05:58.392Z,23.67
2023-03-08T22:08:33.011Z,22.47
2023-03-08T22:10:59.725Z,23.27
2023-03-08T22:13:27.099Z,23.23
2023-03-08T22:15:53.772Z,22.23
2023-03-08T22:18:20.487Z,24.50
2023-03-08T22:20:47.217Z,23.47
2023-03-08T22:23:13.946Z,23.37
2023-03-08T22:25:40.733Z,26.37
2023-03-08T22:28:07.724Z,23.20
2023-03-08T22:30:34.441Z,26.97
2023-03-08T22:33:01.291Z,26.30
2023-03-08T22:35:28.049Z,24.67
2023-03-08T22:37:55.170Z,24.77
2023-03-08T22:40:22.033Z,24.77
2023-03-08T22:42:48.733Z,24.90
2023-03-08T22:45:15.575Z,25.70
2023-03-08T22:47:42.456Z,25.53
2023-03-08T22:50:10.748Z,27.03
2023-03-08T22:52:37.901Z,27.47
2023-03-08T22:55:05.390Z,25.70
2023-03-08T22:57:32.167Z,23.80
2023-03-08T22:59:59.344Z,25.07
2023-03-08T23:02:26.501Z,23.53
2023-03-08T23:04:57.518Z,24.27
2023-03-08T23:07:24.660Z,25.53
2023-03-08T23:09:53.205Z,22.70
2023-03-08T23:12:19.918Z,24.97
2023-03-08T23:14:46.831Z,26.07
2023-03-08T23:17:16.452Z,23.27
2023-03-08T23:19:47.392Z,23.60
2023-03-08T23:22:15.533Z,22.63
2023-03-08T23:24:42.305Z,23.17
2023-03-08T23:27:09.460Z,22.97
2023-03-08T23:29:36.883Z,23.20
2023-03-08T23:32:04.002Z,22.40
2023-03-08T23:34:30.723Z,22.47
2023-03-08T23:36:57.506Z,21.60
2023-03-08T23:39:24.225Z,20.53
2023-03-08T23:41:51.148Z,23.90
2023-03-08T23:44:18.495Z,22.87
2023-03-08T23:46:46.252Z,24.63
2023-03-08T23:49:13.198Z,22.17
2023-03-08T23:51:40.019Z,22.33
2023-03-08T23:54:11.347Z,23.17
2023-03-08T23:56:39.679Z,22.67
2023-03-08T23:59:19.148Z,25.83
